Observation data for Post on 03/13/2018      Previous  Date  Next       Current Mesonet Observations  Soil Data  Daily Summary Page  Observations in Plain Language
KPT1 130500Z 13004KT 08/M08 A3025 RMK A01 T00751081  RH  033%=      5-min Rain = 0
KPT1 130505Z 14005KT 07/M08 A3025 RMK A01 T00741080  RH  033%=      5-min Rain = 0
KPT1 130510Z 14005KT 07/M08 A3024 RMK A01 T00731081  RH  033%=      5-min Rain = 0
KPT1 130515Z 15005KT 07/M08 A3024 RMK A01 T00711081  RH  033%=      5-min Rain = 0
KPT1 130520Z 15005KT 07/M08 A3024 RMK A01 T00701081  RH  034%=      5-min Rain = 0
KPT1 130525Z 15005KT 07/M08 A3024 RMK A01 T00681080  RH  034%=      5-min Rain = 0
KPT1 130530Z 16005KT 07/M08 A3024 RMK A01 T00661080  RH  035%=      5-min Rain = 0
KPT1 130535Z 16005KT 06/M08 A3024 RMK A01 T00641080  RH  035%=      5-min Rain = 0
KPT1 130540Z 16005KT 06/M08 A3024 RMK A01 T00631080  RH  035%=      5-min Rain = 0
KPT1 130545Z 16005KT 06/M08 A3024 RMK A01 T00611081  RH  036%=      5-min Rain = 0
KPT1 130550Z 16005KT 06/M08 A3023 RMK A01 T00601081  RH  036%=      5-min Rain = 0
KPT1 130555Z 16005KT 06/M08 A3023 RMK A01 T00581082  RH  036%=      5-min Rain = 0
KPT1 130600Z 16005KT 06/M08 A3023 RMK A01 T00571082  RH  036%=      5-min Rain = 0
KPT1 130605Z 16005KT 06/M08 A3023 RMK A01 T00571081  RH  037%=      5-min Rain = 0
KPT1 130610Z 17005KT 06/M08 A3023 RMK A01 T00591080  RH  036%=      5-min Rain = 0
KPT1 130615Z 18005KT 06/M08 A3023 RMK A01 T00601080  RH  036%=      5-min Rain = 0
KPT1 130620Z 18004KT 06/M08 A3023 RMK A01 T00611079  RH  036%=      5-min Rain = 0
KPT1 130625Z 18004KT 06/M08 A3023 RMK A01 T00621078  RH  036%=      5-min Rain = 0
KPT1 130630Z 17004KT 06/M08 A3023 RMK A01 T00621076  RH  037%=      5-min Rain = 0
KPT1 130635Z 18003KT 06/M08 A3023 RMK A01 T00611075  RH  037%=      5-min Rain = 0
KPT1 130640Z 18004KT 06/M07 A3023 RMK A01 T00601074  RH  038%=      5-min Rain = 0
KPT1 130645Z 19004KT 06/M07 A3023 RMK A01 T00611073  RH  038%=      5-min Rain = 0
KPT1 130650Z 18003KT 06/M07 A3023 RMK A01 T00621072  RH  038%=      5-min Rain = 0
KPT1 130655Z 16002KT 06/M07 A3023 RMK A01 T00631072  RH  038%=      5-min Rain = 0
KPT1 130700Z 07002KT 05/M08 A3023 RMK A01 T00501076  RH  040%=      5-min Rain = 0
KPT1 130705Z 07003KT 05/M08 A3023 RMK A01 T00521077  RH  039%=      5-min Rain = 0
KPT1 130710Z 06003KT 05/M08 A3023 RMK A01 T00481077  RH  040%=      5-min Rain = 0
KPT1 130715Z 06003KT 05/M08 A3023 RMK A01 T00451078  RH  041%=      5-min Rain = 0
KPT1 130720Z 07004KT 04/M08 A3022 RMK A01 T00401079  RH  042%=      5-min Rain = 0
KPT1 130725Z 06004KT 04/M08 A3023 RMK A01 T00351079  RH  043%=      5-min Rain = 0
KPT1 130730Z 05003KT 04/M08 A3023 RMK A01 T00361080  RH  043%=      5-min Rain = 0
KPT1 130735Z 00003KT 03/M08 A3023 RMK A01 T00311080  RH  045%=      5-min Rain = 0
KPT1 130740Z 35003KT 03/M08 A3023 RMK A01 T00251077  RH  048%=      5-min Rain = 0
KPT1 130745Z 34003KT 02/M08 A3024 RMK A01 T00201082  RH  047%=      5-min Rain = 0
KPT1 130750Z 33003KT 02/M09 A3024 RMK A01 T00181087  RH  046%=      5-min Rain = 0
KPT1 130755Z 32004KT 02/M09 A3024 RMK A01 T00171088  RH  046%=      5-min Rain = 0
KPT1 130800Z 32003KT 02/M09 A3023 RMK A01 T00181088  RH  046%=      5-min Rain = 0
KPT1 130805Z 31004KT 02/M09 A3023 RMK A01 T00161089  RH  046%=      5-min Rain = 0
KPT1 130810Z 30005KT 02/M09 A3023 RMK A01 T00171090  RH  045%=      5-min Rain = 0
KPT1 130815Z 30005KT 02/M09 A3022 RMK A01 T00211089  RH  045%=      5-min Rain = 0
KPT1 130820Z 30005KT 02/M09 A3022 RMK A01 T00221088  RH  044%=      5-min Rain = 0
KPT1 130825Z 29006KT 02/M09 A3023 RMK A01 T00221088  RH  044%=      5-min Rain = 0
KPT1 130830Z 29005KT 02/M09 A3022 RMK A01 T00241086  RH  045%=      5-min Rain = 0
KPT1 130835Z 30004KT 03/M09 A3022 RMK A01 T00261086  RH  044%=      5-min Rain = 0
KPT1 130840Z 30004KT 03/M09 A3022 RMK A01 T00271085  RH  044%=      5-min Rain = 0
KPT1 130845Z 31003KT 03/M08 A3022 RMK A01 T00301083  RH  044%=      5-min Rain = 0
KPT1 130850Z 32003KT 03/M08 A3022 RMK A01 T00331082  RH  043%=      5-min Rain = 0
KPT1 130855Z 32003KT 03/M08 A3022 RMK A01 T00331083  RH  043%=      5-min Rain = 0
KPT1 130900Z 32003KT 03/M09 A3022 RMK A01 T00301085  RH  043%=      5-min Rain = 0
KPT1 130905Z 30003KT 03/M08 A3022 RMK A01 T00311083  RH  043%=      5-min Rain = 0
KPT1 130910Z 31003KT 03/M08 A3022 RMK A01 T00291083  RH  044%=      5-min Rain = 0
KPT1 130915Z 32004KT 03/M08 A3022 RMK A01 T00291082  RH  045%=      5-min Rain = 0
KPT1 130920Z 32003KT 03/M08 A3022 RMK A01 T00321080  RH  044%=      5-min Rain = 0
KPT1 130925Z 32004KT 04/M08 A3022 RMK A01 T00361079  RH  043%=      5-min Rain = 0
KPT1 130930Z 32005KT 03/M08 A3022 RMK A01 T00331081  RH  044%=      5-min Rain = 0
KPT1 130935Z 33005KT 03/M08 A3022 RMK A01 T00311081  RH  044%=      5-min Rain = 0
KPT1 130940Z 33006KT 03/M08 A3023 RMK A01 T00271082  RH  045%=      5-min Rain = 0
KPT1 130945Z 33006KT 02/M08 A3023 RMK A01 T00221083  RH  046%=      5-min Rain = 0
KPT1 130950Z 32006KT 02/M08 A3023 RMK A01 T00171084  RH  048%=      5-min Rain = 0
KPT1 130955Z 32006KT 02/M08 A3023 RMK A01 T00151084  RH  049%=      5-min Rain = 0
KPT1 131000Z 32006KT 01/M08 A3023 RMK A01 T00131084  RH  049%=      5-min Rain = 0
KPT1 131005Z 32006KT 01/M08 A3023 RMK A01 T00121083  RH  050%=      5-min Rain = 0
KPT1 131010Z 33006KT 01/M08 A3023 RMK A01 T00141082  RH  049%=      5-min Rain = 0
KPT1 131015Z 33006KT 01/M08 A3023 RMK A01 T00131081  RH  050%=      5-min Rain = 0
KPT1 131020Z 33005KT 01/M08 A3023 RMK A01 T00121081  RH  051%=      5-min Rain = 0
KPT1 131025Z 33005KT 01/M08 A3023 RMK A01 T00111081  RH  051%=      5-min Rain = 0
KPT1 131030Z 33005KT 01/M08 A3023 RMK A01 T00101082  RH  051%=      5-min Rain = 0
KPT1 131035Z 31005KT 01/M08 A3023 RMK A01 T00091083  RH  051%=      5-min Rain = 0
KPT1 131040Z 31006KT 01/M08 A3024 RMK A01 T00081083  RH  051%=      5-min Rain = 0
KPT1 131045Z 32006KT 01/M08 A3024 RMK A01 T00051084  RH  052%=      5-min Rain = 0
KPT1 131050Z 32006KT 01/M08 A3024 RMK A01 T00051083  RH  052%=      5-min Rain = 0
KPT1 131055Z 32005KT 01/M08 A3024 RMK A01 T00061082  RH  053%=      5-min Rain = 0
KPT1 131100Z 32006KT 01/M08 A3024 RMK A01 T00081081  RH  052%=      5-min Rain = 0
KPT1 131105Z 31005KT 01/M08 A3024 RMK A01 T00061082  RH  052%=      5-min Rain = 0
KPT1 131110Z 31005KT 01/M08 A3024 RMK A01 T00061083  RH  052%=      5-min Rain = 0
KPT1 131115Z 31006KT 01/M08 A3024 RMK A01 T00061084  RH  052%=      5-min Rain = 0
KPT1 131120Z 31005KT 01/M08 A3025 RMK A01 T00061084  RH  052%=      5-min Rain = 0
KPT1 131125Z 32005KT 01/M08 A3025 RMK A01 T00051084  RH  052%=      5-min Rain = 0
KPT1 131130Z 32005KT 01/M08 A3025 RMK A01 T00051083  RH  053%=      5-min Rain = 0
KPT1 131135Z 34005KT 01/M08 A3025 RMK A01 T00081079  RH  053%=      5-min Rain = 0
KPT1 131140Z 34005KT 01/M08 A3026 RMK A01 T00091076  RH  054%=      5-min Rain = 0
KPT1 131145Z 34005KT 01/M08 A3026 RMK A01 T00071075  RH  055%=      5-min Rain = 0
KPT1 131150Z 34005KT 01/M07 A3026 RMK A01 T00091073  RH  055%=      5-min Rain = 0
KPT1 131155Z 34004KT 01/M08 A3026 RMK A01 T00071077  RH  054%=      5-min Rain = 0
KPT1 131200Z 34004KT 01/M08 A3026 RMK A01 T00051078  RH  054%=      5-min Rain = 0
KPT1 131205Z 34004KT 00/M08 A3026 RMK A01 T00031079  RH  054%=      5-min Rain = 0
KPT1 131210Z 34004KT 00/M08 A3026 RMK A01 T00011080  RH  055%=      5-min Rain = 0
KPT1 131215Z 34004KT 00/M08 A3027 RMK A01 T00041080  RH  054%=      5-min Rain = 0
KPT1 131220Z 34004KT 00/M08 A3027 RMK A01 T00021080  RH  054%=      5-min Rain = 0
KPT1 131225Z 33004KT 00/M08 A3027 RMK A01 T00011080  RH  055%=      5-min Rain = 0
KPT1 131230Z 34004KT 00/M08 A3028 RMK A01 T00021079  RH  055%=      5-min Rain = 0
KPT1 131235Z 33004KT 00/M08 A3028 RMK A01 T00041079  RH  055%=      5-min Rain = 0
KPT1 131240Z 34003KT 00/M08 A3028 RMK A01 T00041078  RH  055%=      5-min Rain = 0
KPT1 131245Z 36003KT 01/M08 A3028 RMK A01 T00061077  RH  054%=      5-min Rain = 0
KPT1 131250Z 35004KT 01/M08 A3029 RMK A01 T00071077  RH  054%=      5-min Rain = 0
KPT1 131255Z 34004KT 01/M08 A3029 RMK A01 T00051077  RH  055%=      5-min Rain = 0
KPT1 131300Z 35004KT 01/M08 A3029 RMK A01 T00061076  RH  055%=      5-min Rain = 0
KPT1 131305Z 00005KT 01/M08 A303 RMK A01 T00081075  RH  055%=      5-min Rain = 0
KPT1 131310Z 00005KT 01/M07 A303 RMK A01 T00121072  RH  054%=      5-min Rain = 0
KPT1 131315Z 35004KT 02/M07 A303 RMK A01 T00161072  RH  053%=      5-min Rain = 0
KPT1 131320Z 34004KT 01/M07 A303 RMK A01 T00141067  RH  055%=      5-min Rain = 0
KPT1 131325Z 34004KT 01/M07 A303 RMK A01 T00121071  RH  055%=      5-min Rain = 0
KPT1 131330Z 35004KT 01/M07 A303 RMK A01 T00131073  RH  053%=      5-min Rain = 0
KPT1 131335Z 34004KT 02/M07 A303 RMK A01 T00161073  RH  052%=      5-min Rain = 0
KPT1 131340Z 32003KT 02/M07 A303 RMK A01 T00191072  RH  051%=      5-min Rain = 0
KPT1 131345Z 31002KT 02/M07 A303 RMK A01 T00241071  RH  050%=      5-min Rain = 0
KPT1 131350Z 32001KT 03/M07 A303 RMK A01 T00301069  RH  049%=      5-min Rain = 0
KPT1 131355Z 36000KT 04/M07 A303 RMK A01 T00351067  RH  047%=      5-min Rain = 0
KPT1 131400Z 07001KT 04/M07 A303 RMK A01 T00441066  RH  045%=      5-min Rain = 0
KPT1 131405Z 12001KT 05/M07 A3031 RMK A01 T00511066  RH  043%=      5-min Rain = 0
KPT1 131410Z 06003KT 05/M07 A3031 RMK A01 T00521066  RH  043%=      5-min Rain = 0
KPT1 131415Z 09002KT 06/M07 A3031 RMK A01 T00551066  RH  042%=      5-min Rain = 0
KPT1 131420Z 08002KT 06/M07 A3032 RMK A01 T00561066  RH  041%=      5-min Rain = 0
KPT1 131425Z 08002KT 06/M07 A3032 RMK A01 T00601065  RH  041%=      5-min Rain = 0
KPT1 131430Z 07002KT 06/M07 A3032 RMK A01 T00631065  RH  040%=      5-min Rain = 0
KPT1 131435Z 07002KT 07/M06 A3032 RMK A01 T00671064  RH  039%=      5-min Rain = 0
KPT1 131440Z 07003KT 07/M06 A3033 RMK A01 T00711064  RH  038%=      5-min Rain = 0
KPT1 131445Z 06004KT 07/M06 A3032 RMK A01 T00731064  RH  038%=      5-min Rain = 0
KPT1 131450Z 07004KT 08/M06 A3032 RMK A01 T00771063  RH  037%=      5-min Rain = 0
KPT1 131455Z 09005KT 08/M06 A3032 RMK A01 T00811062  RH  036%=      5-min Rain = 0
KPT1 131500Z 08005KT 08/M06 A3032 RMK A01 T00821063  RH  036%=      5-min Rain = 0
KPT1 131505Z 09006KT 09/M06 A3033 RMK A01 T00861063  RH  035%=      5-min Rain = 0
KPT1 131510Z 10006KT 09/M06 A3033 RMK A01 T00861063  RH  035%=      5-min Rain = 0
KPT1 131515Z 10004KT 09/M06 A3033 RMK A01 T00871063  RH  034%=      5-min Rain = 0
KPT1 131520Z 11004KT 09/M06 A3033 RMK A01 T00931062  RH  033%=      5-min Rain = 0
KPT1 131525Z 12004KT 10/M06 A3033 RMK A01 T00951063  RH  033%=      5-min Rain = 0
KPT1 131530Z 13004KT 10/M06 A3033 RMK A01 T00991061  RH  032%=      5-min Rain = 0
KPT1 131535Z 10005KT 10/M06 A3033 RMK A01 T00991062  RH  032%=      5-min Rain = 0
KPT1 131540Z 12006KT 10/M06 A3033 RMK A01 T01041060  RH  031%=      5-min Rain = 0
KPT1 131545Z 11005KT 11/M06 A3033 RMK A01 T01081060  RH  031%=      5-min Rain = 0
KPT1 131550Z 11007KT 11/M06 A3033 RMK A01 T01111060  RH  030%=      5-min Rain = 0
KPT1 131555Z 12006KT 11/M06 A3033 RMK A01 T01121059  RH  030%=      5-min Rain = 0
KPT1 131600Z 11007KT 11/M06 A3033 RMK A01 T01141058  RH  030%=      5-min Rain = 0
KPT1 131605Z 11006KT 12/M06 A3033 RMK A01 T01211058  RH  029%=      5-min Rain = 0
KPT1 131610Z 11006KT 12/M06 A3033 RMK A01 T01231058  RH  028%=      5-min Rain = 0
KPT1 131615Z 10006G11KT 13/M06 A3033 RMK A01 T01251058  RH  028%=      5-min Rain = 0
KPT1 131620Z 11007KT 13/M06 A3033 RMK A01 T01281057  RH  027%=      5-min Rain = 0
KPT1 131625Z 11008G13KT 13/M06 A3033 RMK A01 T01281058  RH  027%=      5-min Rain = 0
KPT1 131630Z 12007G12KT 13/M06 A3033 RMK A01 T01301057  RH  027%=      5-min Rain = 0
KPT1 131635Z 12008KT 13/M06 A3033 RMK A01 T01311057  RH  027%=      5-min Rain = 0
KPT1 131640Z 11008KT 13/M06 A3033 RMK A01 T01321057  RH  027%=      5-min Rain = 0
KPT1 131645Z 12008G13KT 14/M06 A3033 RMK A01 T01371056  RH  026%=      5-min Rain = 0
KPT1 131650Z 11008G13KT 14/M06 A3033 RMK A01 T01351058  RH  026%=      5-min Rain = 0
KPT1 131655Z 11009KT 14/M06 A3033 RMK A01 T01351057  RH  026%=      5-min Rain = 0
KPT1 131700Z 11009G14KT 13/M06 A3033 RMK A01 T01321057  RH  027%=      5-min Rain = 0
KPT1 131705Z 12008KT 14/M06 A3033 RMK A01 T01371056  RH  026%=      5-min Rain = 0
KPT1 131710Z 10008KT 14/M06 A3032 RMK A01 T01391057  RH  026%=      5-min Rain = 0
KPT1 131715Z 12008G13KT 14/M06 A3032 RMK A01 T01411056  RH  025%=      5-min Rain = 0
KPT1 131720Z 13009G14KT 14/M06 A3032 RMK A01 T01421057  RH  025%=      5-min Rain = 0
KPT1 131725Z 11009KT 14/M06 A3032 RMK A01 T01411057  RH  025%=      5-min Rain = 0
KPT1 131730Z 11009KT 15/M06 A3032 RMK A01 T01481057  RH  024%=      5-min Rain = 0
KPT1 131735Z 11008G13KT 15/M06 A3032 RMK A01 T01461057  RH  024%=      5-min Rain = 0
KPT1 131740Z 10008G13KT 15/M06 A3031 RMK A01 T01531056  RH  023%=      5-min Rain = 0
KPT1 131745Z 09008G13KT 16/M06 A3031 RMK A01 T01571058  RH  023%=      5-min Rain = 0
KPT1 131750Z 11009G14KT 16/M06 A3031 RMK A01 T01551058  RH  023%=      5-min Rain = 0
KPT1 131755Z 11011KT 15/M06 A3031 RMK A01 T01511060  RH  023%=      5-min Rain = 0
KPT1 131800Z 09009G16KT 15/M06 A3031 RMK A01 T01531059  RH  023%=      5-min Rain = 0
KPT1 131805Z 11010KT 15/M06 A3031 RMK A01 T01541059  RH  023%=      5-min Rain = 0
KPT1 131810Z 08012G17KT 16/M06 A303 RMK A01 T01591060  RH  022%=      5-min Rain = 0
KPT1 131815Z 07008G14KT 16/M06 A303 RMK A01 T01581059  RH  022%=      5-min Rain = 0
KPT1 131820Z 09011G16KT 16/M06 A303 RMK A01 T01561060  RH  022%=      5-min Rain = 0
KPT1 131825Z 10009KT 16/M06 A303 RMK A01 T01641058  RH  022%=      5-min Rain = 0
KPT1 131830Z 10012G18KT 16/M06 A303 RMK A01 T01581060  RH  022%=      5-min Rain = 0
KPT1 131835Z 10010G15KT 16/M06 A303 RMK A01 T01591059  RH  022%=      5-min Rain = 0
KPT1 131840Z 10010KT 16/M06 A303 RMK A01 T01631059  RH  021%=      5-min Rain = 0
KPT1 131845Z 09011G18KT 17/M06 A3029 RMK A01 T01651060  RH  021%=      5-min Rain = 0
KPT1 131850Z 08011KT 16/M06 A3029 RMK A01 T01611061  RH  021%=      5-min Rain = 0
KPT1 131855Z 09011G16KT 17/M06 A3029 RMK A01 T01651061  RH  021%=      5-min Rain = 0
KPT1 131900Z 09009G17KT 17/M06 A3028 RMK A01 T01651060  RH  021%=      5-min Rain = 0
KPT1 131905Z 08011G17KT 17/M06 A3028 RMK A01 T01701061  RH  020%=      5-min Rain = 0
KPT1 131910Z 10012KT 17/M07 A3028 RMK A01 T01721066  RH  019%=      5-min Rain = 0
KPT1 131915Z 11007KT 17/M06 A3028 RMK A01 T01671063  RH  020%=      5-min Rain = 0
KPT1 131920Z 10009G15KT 17/M07 A3028 RMK A01 T01711065  RH  019%=      5-min Rain = 0
KPT1 131925Z 11007G13KT 18/M07 A3028 RMK A01 T01751065  RH  019%=      5-min Rain = 0
KPT1 131930Z 11009G15KT 18/M06 A3027 RMK A01 T01761063  RH  019%=      5-min Rain = 0
KPT1 131935Z 12009G15KT 18/M07 A3027 RMK A01 T01761067  RH  019%=      5-min Rain = 0
KPT1 131940Z 10009G18KT 17/M07 A3027 RMK A01 T01721065  RH  019%=      5-min Rain = 0
KPT1 131945Z 08010G15KT 17/M07 A3026 RMK A01 T01721066  RH  019%=      5-min Rain = 0
KPT1 131950Z 09010KT 18/M07 A3026 RMK A01 T01781067  RH  018%=      5-min Rain = 0
KPT1 131955Z 08011G16KT 18/M07 A3026 RMK A01 T01781067  RH  018%=      5-min Rain = 0
KPT1 132000Z 07010G17KT 18/M07 A3026 RMK A01 T01781067  RH  018%=      5-min Rain = 0
KPT1 132005Z 10010G18KT 18/M07 A3026 RMK A01 T01771067  RH  019%=      5-min Rain = 0
KPT1 132010Z 09011G16KT 18/M07 A3026 RMK A01 T01751068  RH  019%=      5-min Rain = 0
KPT1 132015Z 10009G15KT 18/M07 A3025 RMK A01 T01801067  RH  018%=      5-min Rain = 0
KPT1 132020Z 13010G16KT 18/M07 A3025 RMK A01 T01811071  RH  018%=      5-min Rain = 0
KPT1 132025Z 09011G16KT 18/M07 A3025 RMK A01 T01801070  RH  018%=      5-min Rain = 0
KPT1 132030Z 10011G18KT 18/M07 A3025 RMK A01 T01811071  RH  018%=      5-min Rain = 0
KPT1 132035Z 09011G18KT 18/M07 A3025 RMK A01 T01811072  RH  017%=      5-min Rain = 0
KPT1 132040Z 11011G17KT 18/M07 A3025 RMK A01 T01781072  RH  018%=      5-min Rain = 0
KPT1 132045Z 12011G17KT 18/M08 A3026 RMK A01 T01811075  RH  017%=      5-min Rain = 0
KPT1 132050Z 13008G14KT 18/M07 A3025 RMK A01 T01831071  RH  017%=      5-min Rain = 0
KPT1 132055Z 13010KT 19/M07 A3025 RMK A01 T01851071  RH  017%=      5-min Rain = 0
KPT1 132100Z 10012G18KT 18/M07 A3025 RMK A01 T01831073  RH  017%=      5-min Rain = 0
KPT1 132105Z 12010G16KT 19/M07 A3025 RMK A01 T01871074  RH  016%=      5-min Rain = 0
KPT1 132110Z 12012G17KT 18/M08 A3025 RMK A01 T01821077  RH  017%=      5-min Rain = 0
KPT1 132115Z 12007G12KT 18/M08 A3025 RMK A01 T01791075  RH  017%=      5-min Rain = 0
KPT1 132120Z 12011G18KT 18/M08 A3025 RMK A01 T01821076  RH  017%=      5-min Rain = 0
KPT1 132125Z 12009KT 19/M08 A3025 RMK A01 T01851077  RH  016%=      5-min Rain = 0
KPT1 132130Z 12011G17KT 18/M08 A3024 RMK A01 T01811078  RH  017%=      5-min Rain = 0
KPT1 132135Z 13011KT 18/M08 A3024 RMK A01 T01821076  RH  017%=      5-min Rain = 0
KPT1 132140Z 11011KT 19/M08 A3024 RMK A01 T01851080  RH  016%=      5-min Rain = 0
KPT1 132145Z 11009G16KT 19/M08 A3024 RMK A01 T01851078  RH  016%=      5-min Rain = 0
KPT1 132150Z 11008G14KT 18/M08 A3024 RMK A01 T01841078  RH  016%=      5-min Rain = 0
KPT1 132155Z 11008G14KT 18/M08 A3024 RMK A01 T01821078  RH  016%=      5-min Rain = 0
KPT1 132200Z 11011KT 18/M08 A3024 RMK A01 T01831080  RH  016%=      5-min Rain = 0
KPT1 132205Z 10009G14KT 18/M08 A3024 RMK A01 T01801080  RH  016%=      5-min Rain = 0
KPT1 132210Z 08009G14KT 18/M08 A3024 RMK A01 T01821079  RH  016%=      5-min Rain = 0
KPT1 132215Z 08010KT 18/M08 A3024 RMK A01 T01821081  RH  016%=      5-min Rain = 0
KPT1 132220Z 10009KT 19/M08 A3024 RMK A01 T01851082  RH  016%=      5-min Rain = 0
KPT1 132225Z 08011G18KT 18/M08 A3023 RMK A01 T01821081  RH  016%=      5-min Rain = 0
KPT1 132230Z 08009G15KT 18/M08 A3023 RMK A01 T01801082  RH  016%=      5-min Rain = 0
KPT1 132235Z 12009G14KT 18/M08 A3023 RMK A01 T01811083  RH  016%=      5-min Rain = 0
KPT1 132240Z 11009G17KT 18/M08 A3023 RMK A01 T01821082  RH  016%=      5-min Rain = 0
KPT1 132245Z 10011G17KT 18/M08 A3024 RMK A01 T01791082  RH  016%=      5-min Rain = 0
KPT1 132250Z 10009G14KT 18/M08 A3023 RMK A01 T01761082  RH  017%=      5-min Rain = 0
KPT1 132255Z 10010G15KT 18/M08 A3023 RMK A01 T01771081  RH  017%=      5-min Rain = 0
KPT1 132300Z 07009G15KT 18/M08 A3023 RMK A01 T01761082  RH  017%=      5-min Rain = 0
KPT1 132305Z 11011KT 18/M08 A3023 RMK A01 T01781081  RH  016%=      5-min Rain = 0
KPT1 132310Z 10009KT 18/M08 A3023 RMK A01 T01771082  RH  017%=      5-min Rain = 0
KPT1 132315Z 11009KT 18/M08 A3023 RMK A01 T01761081  RH  017%=      5-min Rain = 0
KPT1 132320Z 09009KT 17/M08 A3023 RMK A01 T01741081  RH  017%=      5-min Rain = 0
KPT1 132325Z 10012G17KT 17/M08 A3023 RMK A01 T01721081  RH  017%=      5-min Rain = 0
KPT1 132330Z 09010KT 17/M08 A3023 RMK A01 T01681081  RH  018%=      5-min Rain = 0
KPT1 132335Z 09012G17KT 17/M08 A3023 RMK A01 T01681081  RH  018%=      5-min Rain = 0
KPT1 132340Z 07014G19KT 17/M08 A3023 RMK A01 T01661080  RH  018%=      5-min Rain = 0
KPT1 132345Z 10013KT 17/M08 A3023 RMK A01 T01661081  RH  018%=      5-min Rain = 0
KPT1 132350Z 08012G17KT 16/M08 A3023 RMK A01 T01641080  RH  018%=      5-min Rain = 0
KPT1 132355Z 08012KT 16/M08 A3023 RMK A01 T01611081  RH  018%=      5-min Rain = 0
KPT1 140000Z 10010KT 16/M08 A3023 RMK A01 T01611081  RH  018%=      5-min Rain = 0
KPT1 140005Z 08010KT 16/M08 A3024 RMK A01 T01591082  RH  018%=      5-min Rain = 0
KPT1 140010Z 09011KT 16/M08 A3024 RMK A01 T01581081  RH  019%=      5-min Rain = 0
KPT1 140015Z 09011G16KT 16/M08 A3024 RMK A01 T01561080  RH  019%=      5-min Rain = 0
KPT1 140020Z 09010KT 16/M08 A3024 RMK A01 T01551080  RH  019%=      5-min Rain = 0
KPT1 140025Z 08012KT 15/M08 A3024 RMK A01 T01531080  RH  019%=      5-min Rain = 0
KPT1 140030Z 09009KT 15/M08 A3024 RMK A01 T01511080  RH  020%=      5-min Rain = 0
KPT1 140035Z 09010KT 15/M08 A3024 RMK A01 T01481080  RH  020%=      5-min Rain = 0
KPT1 140040Z 09010KT 15/M08 A3025 RMK A01 T01451081  RH  020%=      5-min Rain = 0
KPT1 140045Z 09010KT 14/M08 A3025 RMK A01 T01421079  RH  021%=      5-min Rain = 0
KPT1 140050Z 08009KT 14/M08 A3025 RMK A01 T01391079  RH  022%=      5-min Rain = 0
KPT1 140055Z 08009KT 14/M08 A3026 RMK A01 T01361079  RH  022%=      5-min Rain = 0
KPT1 140100Z 08009KT 13/M08 A3026 RMK A01 T01341079  RH  022%=      5-min Rain = 0
KPT1 140105Z 08009KT 13/M08 A3026 RMK A01 T01311079  RH  023%=      5-min Rain = 0
KPT1 140110Z 09009KT 13/M08 A3026 RMK A01 T01291078  RH  023%=      5-min Rain = 0
KPT1 140115Z 09009KT 13/M08 A3026 RMK A01 T01281078  RH  023%=      5-min Rain = 0
KPT1 140120Z 09008KT 13/M08 A3026 RMK A01 T01251078  RH  024%=      5-min Rain = 0
KPT1 140125Z 09008KT 12/M08 A3026 RMK A01 T01221078  RH  024%=      5-min Rain = 0
KPT1 140130Z 09008KT 12/M08 A3026 RMK A01 T01191077  RH  025%=      5-min Rain = 0
KPT1 140135Z 09007KT 12/M08 A3026 RMK A01 T01161078  RH  025%=      5-min Rain = 0
KPT1 140140Z 10007KT 11/M08 A3026 RMK A01 T01141078  RH  026%=      5-min Rain = 0
KPT1 140145Z 10007KT 11/M08 A3027 RMK A01 T01131077  RH  026%=      5-min Rain = 0
KPT1 140150Z 10007KT 11/M08 A3027 RMK A01 T01121078  RH  026%=      5-min Rain = 0
KPT1 140155Z 10007KT 11/M08 A3027 RMK A01 T01091078  RH  026%=      5-min Rain = 0
KPT1 140200Z 11007KT 11/M08 A3027 RMK A01 T01091078  RH  027%=      5-min Rain = 0
KPT1 140205Z 11007KT 11/M08 A3028 RMK A01 T01091078  RH  027%=      5-min Rain = 0
KPT1 140210Z 11007KT 11/M08 A3028 RMK A01 T01071078  RH  027%=      5-min Rain = 0
KPT1 140215Z 11008KT 11/M08 A3028 RMK A01 T01061078  RH  027%=      5-min Rain = 0
KPT1 140220Z 11007KT 10/M08 A3028 RMK A01 T01041078  RH  027%=      5-min Rain = 0
KPT1 140225Z 11008KT 10/M08 A3028 RMK A01 T01021078  RH  028%=      5-min Rain = 0
KPT1 140230Z 11008KT 10/M08 A3028 RMK A01 T01041077  RH  028%=      5-min Rain = 0
KPT1 140235Z 11007KT 10/M08 A3029 RMK A01 T01021077  RH  028%=      5-min Rain = 0
KPT1 140240Z 11007KT 10/M08 A3029 RMK A01 T01001078  RH  028%=      5-min Rain = 0
KPT1 140245Z 11007KT 10/M08 A3029 RMK A01 T00991077  RH  029%=      5-min Rain = 0
KPT1 140250Z 11006KT 10/M08 A3029 RMK A01 T00971077  RH  029%=      5-min Rain = 0
KPT1 140255Z 11007KT 10/M08 A3029 RMK A01 T00961077  RH  029%=      5-min Rain = 0
KPT1 140300Z 11008KT 10/M08 A3029 RMK A01 T00971075  RH  029%=      5-min Rain = 0
KPT1 140305Z 11008KT 10/M08 A3029 RMK A01 T00991075  RH  029%=      5-min Rain = 0
KPT1 140310Z 10008KT 10/M08 A3029 RMK A01 T00981075  RH  029%=      5-min Rain = 0
KPT1 140315Z 10008KT 10/M07 A3029 RMK A01 T00951074  RH  030%=      5-min Rain = 0
KPT1 140320Z 10007KT 09/M07 A303 RMK A01 T00921074  RH  031%=      5-min Rain = 0
KPT1 140325Z 10008KT 09/M07 A303 RMK A01 T00901074  RH  031%=      5-min Rain = 0
KPT1 140330Z 10008KT 09/M07 A303 RMK A01 T00901073  RH  031%=      5-min Rain = 0
KPT1 140335Z 10008KT 09/M07 A3031 RMK A01 T00891073  RH  032%=      5-min Rain = 0
KPT1 140340Z 10008KT 09/M07 A3031 RMK A01 T00891072  RH  032%=      5-min Rain = 0
KPT1 140345Z 10008KT 09/M07 A3031 RMK A01 T00881071  RH  032%=      5-min Rain = 0
KPT1 140350Z 10007KT 09/M07 A3031 RMK A01 T00871071  RH  032%=      5-min Rain = 0
KPT1 140355Z 10008KT 09/M07 A3031 RMK A01 T00861071  RH  033%=      5-min Rain = 0
KPT1 140400Z 11007KT 09/M07 A3031 RMK A01 T00851070  RH  033%=      5-min Rain = 0
KPT1 140405Z 11007KT 09/M07 A3031 RMK A01 T00851069  RH  033%=      5-min Rain = 0
KPT1 140410Z 11007KT 08/M07 A3031 RMK A01 T00831069  RH  034%=      5-min Rain = 0
KPT1 140415Z 12006KT 08/M07 A3031 RMK A01 T00811069  RH  034%=      5-min Rain = 0
KPT1 140420Z 13006KT 08/M07 A3031 RMK A01 T00771071  RH  035%=      5-min Rain = 0
KPT1 140425Z 13006KT 08/M07 A3031 RMK A01 T00761070  RH  035%=      5-min Rain = 0
KPT1 140430Z 12006KT 08/M07 A3032 RMK A01 T00761070  RH  035%=      5-min Rain = 0
KPT1 140435Z 13005KT 08/M07 A3032 RMK A01 T00751069  RH  035%=      5-min Rain = 0
KPT1 140440Z 14006KT 07/M07 A3032 RMK A01 T00731069  RH  036%=      5-min Rain = 0
KPT1 140445Z 13006KT 07/M07 A3032 RMK A01 T00741069  RH  036%=      5-min Rain = 0
KPT1 140450Z 13006KT 07/M07 A3032 RMK A01 T00741069  RH  036%=      5-min Rain = 0
KPT1 140455Z 14006KT 07/M07 A3031 RMK A01 T00721070  RH  036%=      5-min Rain = 0

Page generated in 0.0153 seconds.